Time;durP1;ratioP1;P1;durP2;ratioP2;P2;SDS_P1;SDS_P2;PMS_P1;PMS_P2;Temp;Humidity;BMP_temperature;BMP_pressure;BME280_temperature;BME280_humidity;BME280_pressure;Samples;Min_cycle;Max_cycle;Signal;HPM_P1;HPM_P2
2021/05/18 00:01:19;;;;;;;;;;;10.20;99.90;;;;;;5012044;28;19909;-54
2021/05/18 00:03:44;;;;;;;;;;;10.10;99.90;;;;;;5019428;28;19927;-55
2021/05/18 00:06:10;;;;;;;;;;;10.10;99.90;;;;;;5018655;28;19913;-52
2021/05/18 00:11:42;;;;;;;;;;;10.00;99.90;;;;;;5024595;28;19909;-52
2021/05/18 00:14:06;;;;;;;;;;;9.90;99.90;;;;;;5008196;28;19968;-55
2021/05/18 00:16:31;;;;;;;;;;;9.80;99.90;;;;;;5008700;28;19909;-56
2021/05/18 00:18:57;;;;;;;;;;;9.80;99.90;;;;;;5015355;28;20390;-51
2021/05/18 00:21:22;;;;;;;;;;;9.80;99.90;;;;;;5008665;28;19913;-56
2021/05/18 00:23:48;;;;;;;;;;;9.80;99.90;;;;;;5005728;28;19956;-54
2021/05/18 00:26:13;;;;;;;;;;;9.80;99.90;;;;;;5006385;28;19910;-53
2021/05/18 00:28:39;;;;;;;;;;;9.70;99.90;;;;;;5016542;28;20287;-52
2021/05/18 00:31:04;;;;;;;;;;;9.70;99.90;;;;;;5007581;28;19909;-54
2021/05/18 00:33:30;;;;;;;;;;;9.70;99.90;;;;;;5007029;28;20363;-54
2021/05/18 00:35:56;;;;;;;;;;;9.70;99.90;;;;;;4994014;28;19917;-52
2021/05/18 00:38:21;;;;;;;;;;;9.60;99.90;;;;;;5007305;28;20065;-56
2021/05/18 00:40:49;;;;;;;;;;;9.60;99.90;;;;;;5007984;28;19967;-54
2021/05/18 00:43:14;;;;;;;;;;;9.50;99.90;;;;;;4998045;28;20180;-56
2021/05/18 00:45:46;;;;;;;;;;;9.60;99.90;;;;;;5008102;28;20028;-54
2021/05/18 00:48:11;;;;;;;;;;;9.60;99.90;;;;;;5023693;28;19910;-53
2021/05/18 00:50:38;;;;;;;;;;;9.50;99.90;;;;;;5016361;28;19913;-51
2021/05/18 00:53:04;;;;;;;;;;;9.50;99.90;;;;;;5007979;28;19917;-53
2021/05/18 01:00:40;;;;;;;;;;;9.40;99.90;;;;;;5005369;28;20671;-56
2021/05/18 01:03:05;;;;;;;;;;;9.30;99.90;;;;;;5023945;28;20012;-55
2021/05/18 01:08:15;;;;;;;;;;;9.30;99.90;;;;;;5011743;28;19920;-54
2021/05/18 01:10:42;;;;;;;;;;;9.30;99.90;;;;;;5011122;28;19909;-56
2021/05/18 01:13:07;;;;;;;;;;;9.20;99.90;;;;;;5011154;28;19914;-52
2021/05/18 01:15:33;;;;;;;;;;;9.20;99.90;;;;;;5011121;28;20513;-55
2021/05/18 01:17:59;;;;;;;;;;;9.20;99.90;;;;;;5009516;28;19990;-54
2021/05/18 01:20:24;;;;;;;;;;;9.20;99.90;;;;;;5012431;28;19981;-54
2021/05/18 01:22:50;;;;;;;;;;;9.20;99.90;;;;;;5011245;28;20425;-51
2021/05/18 01:25:16;;;;;;;;;;;9.20;99.90;;;;;;5011391;28;20386;-51
2021/05/18 01:27:42;;;;;;;;;;;9.20;99.90;;;;;;5011175;28;19909;-53
2021/05/18 01:30:09;;;;;;;;;;;9.20;99.90;;;;;;5010703;28;20288;-54
2021/05/18 01:32:35;;;;;;;;;;;9.20;99.90;;;;;;5009747;28;20001;-53
2021/05/18 01:35:00;;;;;;;;;;;9.20;99.90;;;;;;5010782;28;19920;-54
2021/05/18 01:37:26;;;;;;;;;;;9.20;99.90;;;;;;5025757;28;19909;-54
2021/05/18 01:40:00;;;;;;;;;;;9.20;99.90;;;;;;5010761;28;19952;-51
2021/05/18 01:42:46;;;;;;;;;;;9.20;99.90;;;;;;5010604;28;19956;-52
2021/05/18 01:45:13;;;;;;;;;;;9.20;99.90;;;;;;5008705;28;19914;-53
2021/05/18 01:47:40;;;;;;;;;;;9.20;99.90;;;;;;5003546;28;20524;-53
2021/05/18 01:50:06;;;;;;;;;;;9.20;99.90;;;;;;5010344;28;19909;-51
2021/05/18 01:52:32;;;;;;;;;;;9.20;99.90;;;;;;5010080;28;19936;-53
2021/05/18 01:54:58;;;;;;;;;;;9.20;99.90;;;;;;5010309;28;19964;-51
2021/05/18 01:57:25;;;;;;;;;;;9.20;99.90;;;;;;5005249;28;19952;-55
2021/05/18 01:59:51;;;;;;;;;;;9.20;99.90;;;;;;5010172;28;19956;-51
2021/05/18 02:02:17;;;;;;;;;;;9.20;99.90;;;;;;5009858;28;19914;-54
2021/05/18 02:04:46;;;;;;;;;;;9.20;99.90;;;;;;5050430;22;19924;-78
2021/05/18 02:07:13;;;;;;;;;;;9.20;99.90;;;;;;5046948;28;19917;-78
2021/05/18 02:09:39;;;;;;;;;;;9.20;99.90;;;;;;5047742;28;19928;-78
2021/05/18 02:12:05;;;;;;;;;;;9.20;99.90;;;;;;5046770;28;19932;-78
2021/05/18 02:14:32;;;;;;;;;;;9.20;99.90;;;;;;5046133;28;19978;-79
2021/05/18 02:17:07;;;;;;;;;;;9.20;99.90;;;;;;5051433;28;19962;-78
2021/05/18 02:19:53;;;;;;;;;;;9.20;99.90;;;;;;5044892;28;19913;-78
2021/05/18 02:25:04;;;;;;;;;;;9.20;99.90;;;;;;5050712;28;19955;-78
2021/05/18 02:27:30;;;;;;;;;;;9.20;99.90;;;;;;5067074;28;19971;-78
2021/05/18 02:29:56;;;;;;;;;;;9.20;99.90;;;;;;5048857;28;19909;-78
2021/05/18 02:32:23;;;;;;;;;;;9.20;99.90;;;;;;5051667;28;19920;-78
2021/05/18 02:34:48;;;;;;;;;;;9.20;99.90;;;;;;5048997;28;19913;-77
2021/05/18 02:37:14;;;;;;;;;;;9.20;99.90;;;;;;5066274;28;19909;-78
2021/05/18 02:39:39;;;;;;;;;;;9.20;99.90;;;;;;5051105;28;19913;-78
2021/05/18 02:42:05;;;;;;;;;;;9.20;99.90;;;;;;5050817;28;19909;-78
2021/05/18 02:44:45;;;;;;;;;;;9.10;99.90;;;;;;5073084;28;19924;-78
2021/05/18 02:49:56;;;;;;;;;;;9.20;99.90;;;;;;5045700;28;20335;-78
2021/05/18 02:52:21;;;;;;;;;;;9.10;99.90;;;;;;5056130;28;19940;-77
2021/05/18 02:54:51;;;;;;;;;;;9.10;99.90;;;;;;5059014;28;19980;-78
2021/05/18 02:57:20;;;;;;;;;;;9.20;99.90;;;;;;5045316;28;19936;-78
2021/05/18 02:59:46;;;;;;;;;;;9.10;99.90;;;;;;5052698;28;20279;-78
2021/05/18 03:02:11;;;;;;;;;;;9.10;99.90;;;;;;5041223;28;19913;-78
2021/05/18 03:04:37;;;;;;;;;;;9.10;99.90;;;;;;5056693;28;20027;-78
2021/05/18 03:07:03;;;;;;;;;;;9.10;99.90;;;;;;5057852;28;19954;-78
2021/05/18 03:09:29;;;;;;;;;;;9.10;99.90;;;;;;5072393;28;19909;-78
2021/05/18 03:11:55;;;;;;;;;;;9.10;99.90;;;;;;5066528;28;19984;-79
2021/05/18 03:14:21;;;;;;;;;;;9.00;99.90;;;;;;5053584;28;19938;-78
2021/05/18 03:16:47;;;;;;;;;;;9.00;99.90;;;;;;5054038;28;19909;-78
2021/05/18 03:19:14;;;;;;;;;;;9.00;99.90;;;;;;5044740;28;20713;-78
2021/05/18 03:21:40;;;;;;;;;;;9.00;99.90;;;;;;5049023;28;19909;-78
2021/05/18 03:24:06;;;;;;;;;;;9.00;99.90;;;;;;5069627;28;19948;-78
2021/05/18 03:26:33;;;;;;;;;;;9.00;99.90;;;;;;5070490;28;20322;-77
2021/05/18 03:29:02;;;;;;;;;;;9.00;99.90;;;;;;5062860;28;19909;-78
2021/05/18 03:36:59;;;;;;;;;;;9.00;99.90;;;;;;5058338;28;19955;-78
2021/05/18 03:39:25;;;;;;;;;;;9.00;99.90;;;;;;5053102;28;19913;-78
2021/05/18 03:41:59;;;;;;;;;;;9.00;99.90;;;;;;5074954;28;19913;-78
2021/05/18 03:44:52;;;;;;;;;;;9.00;99.90;;;;;;5052252;28;19909;-78
2021/05/18 03:52:56;;;;;;;;;;;8.90;99.90;;;;;;5052425;28;19998;-78
2021/05/18 04:11:47;;;;;;;;;;;8.70;99.90;;;;;;5062530;28;19916;-78
2021/05/18 04:16:53;;;;;;;;;;;8.70;99.90;;;;;;5054174;28;19992;-78
2021/05/18 04:19:21;;;;;;;;;;;8.70;99.90;;;;;;5056405;28;20406;-78
2021/05/18 04:22:05;;;;;;;;;;;8.60;99.90;;;;;;5063506;28;19916;-78
2021/05/18 04:24:54;;;;;;;;;;;8.60;99.90;;;;;;5063696;28;19920;-79
2021/05/18 04:38:45;;;;;;;;;;;8.50;99.90;;;;;;5068180;28;19981;-78
2021/05/18 04:41:21;;;;;;;;;;;8.50;99.90;;;;;;5056178;28;19968;-78
2021/05/18 04:52:06;;;;;;;;;;;8.60;99.90;;;;;;5061370;28;19915;-77
2021/05/18 04:59:55;;;;;;;;;;;8.80;99.90;;;;;;5051231;28;19919;-78
2021/05/18 05:07:58;;;;;;;;;;;9.00;99.90;;;;;;5056786;28;20239;-78
2021/05/18 05:15:31;;;;;;;;;;;9.10;99.90;;;;;;5060863;28;19927;-78
2021/05/18 05:17:56;;;;;;;;;;;9.10;99.90;;;;;;5074749;28;19913;-78
2021/05/18 05:20:22;;;;;;;;;;;9.10;99.90;;;;;;5058450;28;19909;-78
2021/05/18 05:22:47;;;;;;;;;;;9.10;99.90;;;;;;5060739;28;19920;-78
2021/05/18 05:25:13;;;;;;;;;;;9.10;99.90;;;;;;5075347;28;19909;-78
2021/05/18 05:27:38;;;;;;;;;;;9.20;99.90;;;;;;5120389;22;19919;-45
2021/05/18 05:30:04;;;;;;;;;;;9.20;99.90;;;;;;5031101;28;19917;-43
2021/05/18 05:32:30;;;;;;;;;;;9.30;99.90;;;;;;5030840;28;19988;-46
2021/05/18 05:34:55;;;;;;;;;;;9.40;99.90;;;;;;5030756;28;19917;-47
2021/05/18 05:37:21;;;;;;;;;;;9.50;99.90;;;;;;5031167;28;19955;-44
2021/05/18 05:39:46;;;;;;;;;;;9.50;99.90;;;;;;5030740;28;19928;-46
2021/05/18 05:42:11;;;;;;;;;;;9.60;99.90;;;;;;5031068;28;19913;-46
2021/05/18 05:44:37;;;;;;;;;;;9.60;99.90;;;;;;5030742;28;20551;-44
2021/05/18 05:47:02;;;;;;;;;;;9.70;99.90;;;;;;5030338;28;19909;-45
2021/05/18 05:49:28;;;;;;;;;;;9.80;99.90;;;;;;5030482;28;20302;-44
2021/05/18 05:51:53;;;;;;;;;;;9.90;99.90;;;;;;5030933;28;19909;-47
2021/05/18 05:54:19;;;;;;;;;;;10.00;99.90;;;;;;5029473;28;19955;-45
2021/05/18 05:56:45;;;;;;;;;;;10.20;99.90;;;;;;5030297;28;20464;-44
2021/05/18 05:59:11;;;;;;;;;;;10.30;99.90;;;;;;5029416;28;19917;-46
2021/05/18 06:01:36;;;;;;;;;;;10.40;99.90;;;;;;5025967;28;19917;-46
2021/05/18 06:04:02;;;;;;;;;;;10.50;99.90;;;;;;5028010;28;19909;-47
2021/05/18 06:06:28;;;;;;;;;;;10.50;99.90;;;;;;5024738;28;19909;-47
2021/05/18 06:08:53;;;;;;;;;;;10.70;99.90;;;;;;5017469;28;20400;-47
2021/05/18 06:11:36;;;;;;;;;;;10.70;99.90;;;;;;5028889;28;19917;-48
2021/05/18 06:37:47;;;;;;;;;;;11.80;99.90;;;;;;4933239;28;19920;-47
2021/05/18 06:43:06;;;;;;;;;;;12.00;99.90;;;;;;5023130;28;19921;-46
2021/05/18 06:48:16;;;;;;;;;;;12.30;99.90;;;;;;5019182;28;19920;-46
2021/05/18 06:50:42;;;;;;;;;;;12.30;99.90;;;;;;5029302;28;20015;-46
2021/05/18 06:53:07;;;;;;;;;;;12.30;99.90;;;;;;5026799;28;19914;-45
2021/05/18 06:55:34;;;;;;;;;;;12.30;99.90;;;;;;5029909;28;19928;-46
2021/05/18 06:58:04;;;;;;;;;;;12.30;99.90;;;;;;5031090;28;19913;-45
2021/05/18 07:00:30;;;;;;;;;;;12.30;99.90;;;;;;5041534;28;20000;-46
2021/05/18 07:02:59;;;;;;;;;;;12.20;99.90;;;;;;5032554;28;20076;-44
2021/05/18 07:10:27;;;;;;;;;;;12.30;99.90;;;;;;5034865;28;19917;-45
2021/05/18 07:12:53;;;;;;;;;;;12.30;99.90;;;;;;5036209;28;19963;-46
2021/05/18 07:15:18;;;;;;;;;;;12.30;99.90;;;;;;5033349;28;20517;-46
2021/05/18 07:17:44;;;;;;;;;;;12.30;99.90;;;;;;5034860;28;19913;-46
2021/05/18 07:20:10;;;;;;;;;;;12.30;99.90;;;;;;5024869;28;20404;-48
2021/05/18 07:22:35;;;;;;;;;;;12.30;99.90;;;;;;5035992;28;20015;-46
2021/05/18 07:25:01;;;;;;;;;;;12.30;99.90;;;;;;5032921;28;19967;-45
2021/05/18 07:27:26;;;;;;;;;;;12.40;99.90;;;;;;5031746;28;19913;-46
2021/05/18 07:29:52;;;;;;;;;;;12.40;99.90;;;;;;5027955;28;19920;-45
2021/05/18 07:32:17;;;;;;;;;;;12.40;99.90;;;;;;5033398;28;19944;-45
2021/05/18 07:34:43;;;;;;;;;;;12.40;99.90;;;;;;5039096;28;20571;-46
2021/05/18 07:37:08;;;;;;;;;;;12.50;99.90;;;;;;5048574;28;19923;-46
2021/05/18 07:39:34;;;;;;;;;;;12.50;99.90;;;;;;5051076;28;19956;-45
2021/05/18 07:41:59;;;;;;;;;;;12.50;99.90;;;;;;5044797;28;19967;-46
2021/05/18 07:44:25;;;;;;;;;;;12.40;99.90;;;;;;5054493;28;19994;-46
2021/05/18 07:46:51;;;;;;;;;;;12.50;99.90;;;;;;5055037;28;19963;-46
2021/05/18 07:49:29;;;;;;;;;;;12.70;99.90;;;;;;5038917;28;20000;-46
2021/05/18 07:59:14;;;;;;;;;;;12.80;99.90;;;;;;5036018;28;19913;-45
2021/05/18 08:05:28;;;;;;;;;;;14.20;99.90;;;;;;5039856;28;19925;-45
2021/05/18 08:07:54;;;;;;;;;;;14.50;99.90;;;;;;5032305;28;20004;-45
2021/05/18 08:12:45;;;;;;;;;;;14.50;99.90;;;;;;5040202;28;19927;-46
2021/05/18 08:20:55;;;;;;;;;;;14.30;99.90;;;;;;5032009;28;20015;-46
2021/05/18 10:35:32;;;;;;;;;;;13.80;99.90;;;;;;5039887;28;19917;-47
2021/05/18 10:37:59;;;;;;;;;;;13.80;99.90;;;;;;5038627;28;20300;-46
2021/05/18 10:40:28;;;;;;;;;;;13.70;99.90;;;;;;5032039;28;19913;-46
2021/05/18 10:43:32;;;;;;;;;;;13.50;99.90;;;;;;5027881;28;19963;-47
2021/05/18 10:46:02;;;;;;;;;;;13.30;99.90;;;;;;5023874;28;19921;-48
2021/05/18 10:48:31;;;;;;;;;;;13.20;99.90;;;;;;5024564;28;19921;-49
2021/05/18 10:50:57;;;;;;;;;;;13.10;99.90;;;;;;5024849;28;19920;-51
2021/05/18 10:53:23;;;;;;;;;;;13.00;99.90;;;;;;5030192;28;19943;-48
2021/05/18 10:56:08;;;;;;;;;;;13.00;99.90;;;;;;5028803;28;19917;-46
2021/05/18 10:58:34;;;;;;;;;;;13.00;99.90;;;;;;5038341;28;19913;-49
2021/05/18 11:01:03;;;;;;;;;;;12.90;99.90;;;;;;5038764;28;20437;-47
2021/05/18 11:03:29;;;;;;;;;;;12.90;99.90;;;;;;5038058;28;19919;-50
2021/05/18 11:06:03;;;;;;;;;;;12.90;99.90;;;;;;5065921;28;19966;-47
2021/05/18 11:08:29;;;;;;;;;;;13.00;99.90;;;;;;5028784;28;19913;-48
2021/05/18 11:10:54;;;;;;;;;;;13.20;99.90;;;;;;5039730;28;19920;-46
2021/05/18 11:13:19;;;;;;;;;;;13.20;99.90;;;;;;5038783;28;19982;-47
2021/05/18 11:15:45;;;;;;;;;;;13.20;99.90;;;;;;5012126;28;19921;-48
2021/05/18 11:18:10;;;;;;;;;;;13.00;99.90;;;;;;5013949;28;20400;-47
2021/05/18 11:25:55;;;;;;;;;;;12.80;99.90;;;;;;5018171;28;19955;-45
2021/05/18 11:28:22;;;;;;;;;;;12.80;99.90;;;;;;5015583;28;20021;-46
2021/05/18 11:30:56;;;;;;;;;;;12.80;99.90;;;;;;5013418;28;20505;-45
2021/05/18 11:33:37;;;;;;;;;;;12.80;99.90;;;;;;5014417;28;19914;-46
2021/05/18 11:36:05;;;;;;;;;;;12.80;99.90;;;;;;5012378;28;20281;-47
2021/05/18 11:38:34;;;;;;;;;;;12.80;99.90;;;;;;5012926;28;20527;-46
2021/05/18 11:40:59;;;;;;;;;;;12.70;99.90;;;;;;5014342;28;20411;-47
2021/05/18 11:43:26;;;;;;;;;;;12.80;99.90;;;;;;5017328;28;19928;-47
2021/05/18 11:46:02;;;;;;;;;;;12.80;99.90;;;;;;5045168;28;19913;-49
2021/05/18 11:48:27;;;;;;;;;;;12.70;99.90;;;;;;5013196;28;20482;-46
2021/05/18 11:51:00;;;;;;;;;;;12.70;99.90;;;;;;5014315;28;20024;-45
2021/05/18 11:53:27;;;;;;;;;;;12.80;99.90;;;;;;5013471;28;20407;-44
2021/05/18 11:55:52;;;;;;;;;;;12.90;99.90;;;;;;5018401;28;19964;-47
2021/05/18 11:58:18;;;;;;;;;;;13.00;99.90;;;;;;5012674;28;19957;-45
2021/05/18 12:00:43;;;;;;;;;;;13.10;99.90;;;;;;5012321;28;19940;-47
2021/05/18 12:03:09;;;;;;;;;;;13.10;99.90;;;;;;5045768;28;20289;-46
2021/05/18 12:05:49;;;;;;;;;;;13.20;99.90;;;;;;5043932;28;19921;-47
2021/05/18 12:08:30;;;;;;;;;;;13.20;99.90;;;;;;5013267;28;20342;-46
2021/05/18 12:11:10;;;;;;;;;;;13.30;99.90;;;;;;5014793;28;19945;-47
2021/05/18 12:13:35;;;;;;;;;;;13.30;99.90;;;;;;5018106;28;19913;-44
2021/05/18 12:16:07;;;;;;;;;;;13.40;99.90;;;;;;5017334;28;19940;-47
2021/05/18 12:18:34;;;;;;;;;;;13.50;99.90;;;;;;5017741;28;19917;-47
2021/05/18 12:21:13;;;;;;;;;;;13.60;99.90;;;;;;5011640;28;19993;-50
2021/05/18 12:23:38;;;;;;;;;;;13.80;99.90;;;;;;5020345;28;19918;-47
2021/05/18 12:26:08;;;;;;;;;;;14.00;99.90;;;;;;5046914;28;19917;-50
2021/05/18 12:28:33;;;;;;;;;;;14.20;99.90;;;;;;5014380;28;19913;-52
2021/05/18 12:30:59;;;;;;;;;;;14.60;99.90;;;;;;5011148;28;19913;-48
2021/05/18 12:33:37;;;;;;;;;;;14.70;99.90;;;;;;5011272;28;19968;-46
2021/05/18 12:36:06;;;;;;;;;;;14.90;99.90;;;;;;5012722;28;20300;-46
2021/05/18 12:38:31;;;;;;;;;;;15.00;99.90;;;;;;5012886;28;19922;-46
2021/05/18 12:41:01;;;;;;;;;;;15.00;99.90;;;;;;5012147;28;19913;-48
2021/05/18 12:43:36;;;;;;;;;;;15.00;99.90;;;;;;5014707;28;19913;-49
2021/05/18 12:46:09;;;;;;;;;;;15.20;99.90;;;;;;5011782;28;19918;-47
2021/05/18 12:48:38;;;;;;;;;;;15.50;99.90;;;;;;5012715;28;19939;-47
2021/05/18 12:51:35;;;;;;;;;;;15.60;99.90;;;;;;5010377;28;19947;-49
2021/05/18 12:54:02;;;;;;;;;;;15.70;99.90;;;;;;5012097;28;19918;-48
2021/05/18 12:56:28;;;;;;;;;;;15.80;99.90;;;;;;5011943;28;20012;-47
2021/05/18 12:59:02;;;;;;;;;;;16.00;99.90;;;;;;5029617;28;19913;-50
2021/05/18 13:01:38;;;;;;;;;;;16.00;99.90;;;;;;5037937;28;19925;-46
2021/05/18 13:04:07;;;;;;;;;;;16.00;99.90;;;;;;5036632;28;19913;-60
2021/05/18 13:06:33;;;;;;;;;;;16.00;99.90;;;;;;5031353;28;19913;-59
2021/05/18 13:08:58;;;;;;;;;;;16.10;99.90;;;;;;5029505;28;20012;-59
2021/05/18 13:13:59;;;;;;;;;;;16.30;99.90;;;;;;5041175;28;20497;-57
2021/05/18 13:16:26;;;;;;;;;;;16.30;97.90;;;;;;5063492;28;20319;-56
2021/05/18 13:19:01;;;;;;;;;;;16.40;98.40;;;;;;5034099;28;20012;-50
2021/05/18 13:21:31;;;;;;;;;;;16.60;97.10;;;;;;5030772;28;19913;-50
2021/05/18 13:26:29;;;;;;;;;;;16.70;95.90;;;;;;5036568;28;19913;-50
2021/05/18 13:29:01;;;;;;;;;;;16.80;93.50;;;;;;5031445;28;19957;-62
2021/05/18 13:31:28;;;;;;;;;;;16.80;93.50;;;;;;5028956;28;19913;-62
2021/05/18 13:33:54;;;;;;;;;;;16.90;93.20;;;;;;5044036;28;19916;-46
2021/05/18 13:36:19;;;;;;;;;;;17.00;93.30;;;;;;5039303;28;20284;-46
2021/05/18 13:38:45;;;;;;;;;;;17.00;93.90;;;;;;5033333;28;19920;-47
2021/05/18 13:41:10;;;;;;;;;;;17.10;92.10;;;;;;5029972;28;19917;-47
2021/05/18 13:43:35;;;;;;;;;;;17.10;91.30;;;;;;5032418;28;19917;-48
2021/05/18 13:46:02;;;;;;;;;;;17.10;91.50;;;;;;5042568;28;19963;-49
2021/05/18 13:48:27;;;;;;;;;;;17.00;90.30;;;;;;5036216;28;20604;-47
2021/05/18 13:50:53;;;;;;;;;;;17.00;89.30;;;;;;5031714;28;19920;-47
2021/05/18 13:53:18;;;;;;;;;;;17.10;91.60;;;;;;5029465;28;20538;-48
2021/05/18 13:55:44;;;;;;;;;;;17.00;92.70;;;;;;5029822;28;20371;-45
2021/05/18 13:58:10;;;;;;;;;;;16.80;91.50;;;;;;5036227;28;20331;-48
2021/05/18 14:00:36;;;;;;;;;;;16.70;93.20;;;;;;5036832;28;19913;-46
2021/05/18 14:03:01;;;;;;;;;;;16.60;93.20;;;;;;5032945;28;19925;-49
2021/05/18 14:05:29;;;;;;;;;;;16.60;92.00;;;;;;5031261;28;19921;-46
2021/05/18 14:10:51;;;;;;;;;;;16.50;95.10;;;;;;5037518;28;19913;-45
2021/05/18 14:13:17;;;;;;;;;;;16.40;96.00;;;;;;5035862;28;19921;-45
2021/05/18 14:15:42;;;;;;;;;;;16.20;94.60;;;;;;5033782;28;20389;-48
2021/05/18 14:18:09;;;;;;;;;;;16.20;93.60;;;;;;5034054;28;19913;-46
2021/05/18 14:20:35;;;;;;;;;;;16.10;93.90;;;;;;5027786;28;19944;-48
2021/05/18 14:23:00;;;;;;;;;;;16.20;93.60;;;;;;5036209;28;19913;-46
2021/05/18 14:25:25;;;;;;;;;;;16.30;96.70;;;;;;5034885;28;19913;-46
2021/05/18 14:27:51;;;;;;;;;;;16.30;96.00;;;;;;5030438;28;19963;-44
2021/05/18 14:30:17;;;;;;;;;;;16.40;97.90;;;;;;5027682;28;19913;-44
2021/05/18 14:32:42;;;;;;;;;;;16.30;92.70;;;;;;5038279;28;20348;-46
2021/05/18 14:35:10;;;;;;;;;;;16.20;92.50;;;;;;5037895;28;19914;-44
2021/05/18 14:37:39;;;;;;;;;;;16.30;94.40;;;;;;5036288;28;19917;-49
2021/05/18 14:40:23;;;;;;;;;;;16.30;93.60;;;;;;5059854;28;19948;-46
2021/05/18 14:45:18;;;;;;;;;;;16.30;91.50;;;;;;5037953;28;19962;-45
2021/05/18 14:56:01;;;;;;;;;;;17.00;92.90;;;;;;5028871;28;19939;-46
2021/05/18 14:58:26;;;;;;;;;;;16.90;93.70;;;;;;4996445;28;20378;-45
2021/05/18 15:00:52;;;;;;;;;;;16.80;96.00;;;;;;5072533;28;19944;-45
2021/05/18 15:03:17;;;;;;;;;;;16.70;93.80;;;;;;5060145;28;20452;-46
2021/05/18 15:05:43;;;;;;;;;;;16.70;96.10;;;;;;5040321;28;19947;-45
2021/05/18 15:08:09;;;;;;;;;;;16.70;97.80;;;;;;5065405;28;21022;-45
2021/05/18 15:10:35;;;;;;;;;;;16.50;95.80;;;;;;5037791;28;19921;-46
2021/05/18 15:13:00;;;;;;;;;;;16.40;97.20;;;;;;5059235;28;19912;-45
2021/05/18 15:15:27;;;;;;;;;;;16.30;97.50;;;;;;5061542;28;19909;-47
2021/05/18 15:17:56;;;;;;;;;;;16.30;98.40;;;;;;5061320;28;19921;-47
2021/05/18 15:20:21;;;;;;;;;;;16.20;99.70;;;;;;5051951;28;19975;-47
2021/05/18 15:22:47;;;;;;;;;;;16.20;99.70;;;;;;5051786;28;20497;-47
2021/05/18 15:25:12;;;;;;;;;;;16.20;99.40;;;;;;5061314;28;19909;-47
2021/05/18 15:27:38;;;;;;;;;;;16.20;99.90;;;;;;5061760;28;20286;-47
2021/05/18 15:30:05;;;;;;;;;;;16.20;99.90;;;;;;5053765;28;19913;-49
2021/05/18 15:32:30;;;;;;;;;;;16.20;99.90;;;;;;5053611;28;19909;-45
2021/05/18 15:34:55;;;;;;;;;;;16.10;99.40;;;;;;5062401;28;19912;-45
2021/05/18 15:37:21;;;;;;;;;;;15.90;99.90;;;;;;5061443;28;19927;-44
2021/05/18 15:39:46;;;;;;;;;;;15.70;99.00;;;;;;5059454;28;19908;-46
2021/05/18 15:42:12;;;;;;;;;;;15.50;98.70;;;;;;5052687;28;20586;-44
2021/05/18 15:44:37;;;;;;;;;;;15.40;98.50;;;;;;5053250;28;20066;-46
2021/05/18 15:47:03;;;;;;;;;;;15.50;99.90;;;;;;5061595;28;19955;-44
2021/05/18 15:49:30;;;;;;;;;;;15.50;99.90;;;;;;5061453;28;19944;-47
2021/05/18 15:51:56;;;;;;;;;;;15.60;99.70;;;;;;5038188;28;19931;-51
2021/05/18 15:54:21;;;;;;;;;;;15.60;98.80;;;;;;5050546;28;20302;-50
2021/05/18 15:56:47;;;;;;;;;;;15.50;98.90;;;;;;5034938;28;19943;-47
2021/05/18 15:59:13;;;;;;;;;;;15.50;98.90;;;;;;5064613;28;19915;-48
2021/05/18 16:01:38;;;;;;;;;;;15.40;98.20;;;;;;5065659;28;19954;-46
2021/05/18 16:04:07;;;;;;;;;;;15.30;99.90;;;;;;5061390;28;19912;-49
2021/05/18 16:06:34;;;;;;;;;;;15.30;99.10;;;;;;5055039;28;19915;-45
2021/05/18 16:09:00;;;;;;;;;;;15.20;99.90;;;;;;5052151;28;20584;-46
2021/05/18 16:11:26;;;;;;;;;;;15.20;99.90;;;;;;5065066;28;19915;-47
2021/05/18 16:13:51;;;;;;;;;;;15.20;99.90;;;;;;5064725;28;19912;-48
2021/05/18 16:16:17;;;;;;;;;;;15.20;99.60;;;;;;5046645;28;19974;-45
2021/05/18 16:18:43;;;;;;;;;;;15.20;99.90;;;;;;5057672;28;19962;-43
2021/05/18 16:21:09;;;;;;;;;;;15.20;99.90;;;;;;5051077;28;19912;-43
2021/05/18 16:23:38;;;;;;;;;;;15.20;99.90;;;;;;5057488;28;19915;-45
2021/05/18 16:26:04;;;;;;;;;;;15.20;99.90;;;;;;5057358;28;19916;-43
2021/05/18 16:28:30;;;;;;;;;;;15.10;99.90;;;;;;5054811;28;19916;-46
2021/05/18 16:30:57;;;;;;;;;;;15.20;99.90;;;;;;5052784;28;19909;-48
2021/05/18 16:33:23;;;;;;;;;;;15.30;99.90;;;;;;5058079;28;19916;-46
2021/05/18 16:35:48;;;;;;;;;;;15.30;99.90;;;;;;5054143;28;20365;-47
2021/05/18 16:38:14;;;;;;;;;;;15.30;99.90;;;;;;5038659;28;19915;-46
2021/05/18 16:40:39;;;;;;;;;;;15.30;99.90;;;;;;5049547;28;19917;-48
2021/05/18 16:43:06;;;;;;;;;;;15.40;99.90;;;;;;5046465;28;19916;-50
2021/05/18 16:45:33;;;;;;;;;;;15.30;99.90;;;;;;5059107;28;19924;-49
2021/05/18 16:47:58;;;;;;;;;;;15.40;99.90;;;;;;5062533;28;19954;-45
2021/05/18 16:50:24;;;;;;;;;;;15.40;99.90;;;;;;5045866;28;19913;-47
2021/05/18 16:52:50;;;;;;;;;;;15.40;99.60;;;;;;5051666;28;19967;-44
2021/05/18 16:55:15;;;;;;;;;;;15.30;99.90;;;;;;5049612;28;19955;-45
2021/05/18 16:57:41;;;;;;;;;;;15.30;99.90;;;;;;5054852;28;20019;-45
2021/05/18 17:00:08;;;;;;;;;;;15.20;99.90;;;;;;5066948;28;19918;-45
2021/05/18 17:02:33;;;;;;;;;;;15.20;99.90;;;;;;5061295;28;20027;-44
2021/05/18 17:04:59;;;;;;;;;;;15.10;99.90;;;;;;5049304;28;19913;-44
2021/05/18 17:07:24;;;;;;;;;;;15.10;99.90;;;;;;5035288;28;19945;-46
2021/05/18 17:09:50;;;;;;;;;;;15.00;99.90;;;;;;5054143;28;20374;-44
2021/05/18 17:12:18;;;;;;;;;;;14.80;99.90;;;;;;5060160;28;19909;-46
2021/05/18 17:14:45;;;;;;;;;;;14.70;99.90;;;;;;5054638;28;20002;-46
2021/05/18 17:17:12;;;;;;;;;;;14.70;99.90;;;;;;5054173;28;19920;-44
2021/05/18 17:19:38;;;;;;;;;;;14.60;99.90;;;;;;5051441;28;19916;-45
2021/05/18 17:22:03;;;;;;;;;;;14.50;99.90;;;;;;5055899;28;20279;-47
2021/05/18 17:24:29;;;;;;;;;;;14.40;99.90;;;;;;5056279;28;20001;-46
2021/05/18 17:26:55;;;;;;;;;;;14.40;99.90;;;;;;5052477;28;19908;-46
2021/05/18 17:29:23;;;;;;;;;;;14.50;99.90;;;;;;5049150;28;19909;-47
2021/05/18 17:31:48;;;;;;;;;;;14.50;99.90;;;;;;5040885;28;20387;-46
2021/05/18 17:34:14;;;;;;;;;;;14.60;99.90;;;;;;5054295;28;19915;-46
2021/05/18 17:36:39;;;;;;;;;;;14.60;99.90;;;;;;5050171;28;20375;-49
2021/05/18 17:39:05;;;;;;;;;;;14.50;99.90;;;;;;5050630;28;19991;-48
2021/05/18 17:41:30;;;;;;;;;;;14.50;99.90;;;;;;5034159;28;20016;-48
2021/05/18 17:43:56;;;;;;;;;;;14.40;99.90;;;;;;5054971;28;19962;-45
2021/05/18 17:46:27;;;;;;;;;;;14.30;99.90;;;;;;5065498;28;19974;-46
2021/05/18 17:48:53;;;;;;;;;;;14.30;99.90;;;;;;5044051;28;20284;-47
2021/05/18 17:51:19;;;;;;;;;;;14.20;99.90;;;;;;5054351;28;20141;-46
2021/05/18 17:53:44;;;;;;;;;;;14.20;99.90;;;;;;5053370;28;19943;-47
2021/05/18 17:56:10;;;;;;;;;;;14.10;99.90;;;;;;5049287;28;19919;-48
2021/05/18 17:58:35;;;;;;;;;;;13.90;99.90;;;;;;5060602;28;19913;-45
2021/05/18 18:01:01;;;;;;;;;;;13.80;99.90;;;;;;5061117;28;19917;-48
2021/05/18 18:03:26;;;;;;;;;;;13.80;99.90;;;;;;5053965;28;19971;-47
2021/05/18 18:05:52;;;;;;;;;;;13.60;99.90;;;;;;5056345;28;19908;-45
2021/05/18 18:08:18;;;;;;;;;;;13.50;99.90;;;;;;5049496;28;19916;-43
2021/05/18 18:10:48;;;;;;;;;;;13.50;99.90;;;;;;5052846;28;19908;-46
2021/05/18 18:13:14;;;;;;;;;;;13.40;99.90;;;;;;5050688;28;19920;-45
2021/05/18 18:15:39;;;;;;;;;;;13.30;99.90;;;;;;5059792;28;19908;-46
2021/05/18 18:18:05;;;;;;;;;;;13.20;99.90;;;;;;5040499;28;19912;-47
2021/05/18 18:20:30;;;;;;;;;;;13.20;99.90;;;;;;5038607;28;19979;-46
2021/05/18 18:22:56;;;;;;;;;;;13.10;99.90;;;;;;5054388;28;20065;-45
2021/05/18 18:25:22;;;;;;;;;;;13.10;99.90;;;;;;5053341;28;20642;-43
2021/05/18 18:27:47;;;;;;;;;;;13.00;99.90;;;;;;5050598;28;19995;-44
2021/05/18 18:30:14;;;;;;;;;;;12.90;99.90;;;;;;5050548;28;20298;-44
2021/05/18 18:32:39;;;;;;;;;;;12.90;99.90;;;;;;5058083;28;19909;-45
2021/05/18 18:35:06;;;;;;;;;;;12.90;99.90;;;;;;5056074;28;19916;-44
2021/05/18 18:37:36;;;;;;;;;;;12.80;99.90;;;;;;5055408;28;19920;-47
2021/05/18 18:40:03;;;;;;;;;;;12.70;99.90;;;;;;5048603;28;19956;-46
2021/05/18 18:42:29;;;;;;;;;;;12.60;99.90;;;;;;5049659;28;20367;-44
2021/05/18 18:44:54;;;;;;;;;;;12.60;99.90;;;;;;5057315;28;19915;-46
2021/05/18 18:47:20;;;;;;;;;;;12.50;99.90;;;;;;5055993;28;20543;-44
2021/05/18 18:49:49;;;;;;;;;;;12.50;99.90;;;;;;5046912;28;20287;-46
2021/05/18 18:52:27;;;;;;;;;;;12.50;99.90;;;;;;5038926;28;20322;-48
2021/05/18 18:54:53;;;;;;;;;;;12.40;99.90;;;;;;5045045;28;19920;-45
2021/05/18 18:57:19;;;;;;;;;;;12.40;99.90;;;;;;5048226;28;20295;-47
2021/05/18 18:59:44;;;;;;;;;;;12.30;99.90;;;;;;5052151;28;19917;-44
2021/05/18 19:02:11;;;;;;;;;;;12.20;99.90;;;;;;5054720;28;19915;-45
2021/05/18 19:04:40;;;;;;;;;;;12.20;99.90;;;;;;5053267;28;19944;-44
2021/05/18 19:07:19;;;;;;;;;;;12.10;99.90;;;;;;5050332;28;19995;-44
2021/05/18 19:10:09;;;;;;;;;;;12.00;99.90;;;;;;5054271;28;20175;-43
2021/05/18 19:12:44;;;;;;;;;;;12.00;99.90;;;;;;5047793;28;19915;-43
2021/05/18 19:15:10;;;;;;;;;;;11.90;99.90;;;;;;5054626;28;20007;-44